sensor_id;sensor_type;location;lat;lon;timestamp;P1;durP1;ratioP1;P2;durP2;ratioP2
59169;SDS011;52474;52.236;5.114;2024-01-30T00:02:16;34.95;;;18.05;;
59169;SDS011;52474;52.236;5.114;2024-01-30T00:04:42;31.90;;;18.27;;
59169;SDS011;52474;52.236;5.114;2024-01-30T00:07:08;30.08;;;17.75;;
59169;SDS011;52474;52.236;5.114;2024-01-30T00:09:33;26.10;;;17.00;;
59169;SDS011;52474;52.236;5.114;2024-01-30T00:11:59;33.58;;;18.88;;
59169;SDS011;52474;52.236;5.114;2024-01-30T00:14:25;33.90;;;18.00;;
59169;SDS011;52474;52.236;5.114;2024-01-30T00:16:51;29.40;;;17.77;;
59169;SDS011;52474;52.236;5.114;2024-01-30T00:19:17;30.73;;;18.63;;
59169;SDS011;52474;52.236;5.114;2024-01-30T00:21:43;30.95;;;17.35;;
59169;SDS011;52474;52.236;5.114;2024-01-30T00:24:08;27.75;;;17.23;;
59169;SDS011;52474;52.236;5.114;2024-01-30T00:26:34;30.92;;;17.98;;
59169;SDS011;52474;52.236;5.114;2024-01-30T00:29:00;27.83;;;17.65;;
59169;SDS011;52474;52.236;5.114;2024-01-30T00:31:25;31.60;;;18.42;;
59169;SDS011;52474;52.236;5.114;2024-01-30T00:33:51;30.15;;;16.35;;
59169;SDS011;52474;52.236;5.114;2024-01-30T00:36:17;26.92;;;16.70;;
59169;SDS011;52474;52.236;5.114;2024-01-30T00:38:43;26.92;;;16.88;;
59169;SDS011;52474;52.236;5.114;2024-01-30T00:41:08;28.63;;;18.17;;
59169;SDS011;52474;52.236;5.114;2024-01-30T00:43:35;24.48;;;15.80;;
59169;SDS011;52474;52.236;5.114;2024-01-30T00:46:01;29.23;;;17.92;;
59169;SDS011;52474;52.236;5.114;2024-01-30T00:48:27;27.48;;;17.95;;
59169;SDS011;52474;52.236;5.114;2024-01-30T00:50:52;24.42;;;15.23;;
59169;SDS011;52474;52.236;5.114;2024-01-30T00:53:18;30.13;;;17.20;;
59169;SDS011;52474;52.236;5.114;2024-01-30T00:55:44;25.80;;;16.48;;
59169;SDS011;52474;52.236;5.114;2024-01-30T00:58:09;27.35;;;16.33;;
59169;SDS011;52474;52.236;5.114;2024-01-30T01:00:35;28.42;;;16.38;;
59169;SDS011;52474;52.236;5.114;2024-01-30T01:03:01;25.75;;;16.45;;
59169;SDS011;52474;52.236;5.114;2024-01-30T01:05:27;23.85;;;15.55;;
59169;SDS011;52474;52.236;5.114;2024-01-30T01:07:52;28.02;;;15.82;;
59169;SDS011;52474;52.236;5.114;2024-01-30T01:10:18;29.50;;;16.38;;
59169;SDS011;52474;52.236;5.114;2024-01-30T01:12:44;26.42;;;15.50;;
59169;SDS011;52474;52.236;5.114;2024-01-30T01:15:10;24.08;;;15.23;;
59169;SDS011;52474;52.236;5.114;2024-01-30T01:17:36;23.58;;;15.57;;
59169;SDS011;52474;52.236;5.114;2024-01-30T01:20:03;24.42;;;15.90;;
59169;SDS011;52474;52.236;5.114;2024-01-30T01:22:30;25.30;;;15.52;;
59169;SDS011;52474;52.236;5.114;2024-01-30T01:24:56;23.90;;;15.02;;
59169;SDS011;52474;52.236;5.114;2024-01-30T01:27:22;25.08;;;16.27;;
59169;SDS011;52474;52.236;5.114;2024-01-30T01:29:47;25.00;;;15.60;;
59169;SDS011;52474;52.236;5.114;2024-01-30T01:32:13;26.15;;;15.15;;
59169;SDS011;52474;52.236;5.114;2024-01-30T01:34:39;24.63;;;14.30;;
59169;SDS011;52474;52.236;5.114;2024-01-30T01:37:04;25.25;;;14.75;;
59169;SDS011;52474;52.236;5.114;2024-01-30T01:39:31;24.73;;;15.43;;
59169;SDS011;52474;52.236;5.114;2024-01-30T01:41:56;25.35;;;15.13;;
59169;SDS011;52474;52.236;5.114;2024-01-30T01:44:22;26.77;;;15.93;;
59169;SDS011;52474;52.236;5.114;2024-01-30T01:46:48;22.05;;;14.32;;
59169;SDS011;52474;52.236;5.114;2024-01-30T01:49:14;24.23;;;15.43;;
59169;SDS011;52474;52.236;5.114;2024-01-30T01:51:39;24.08;;;15.15;;
59169;SDS011;52474;52.236;5.114;2024-01-30T01:54:07;22.80;;;14.20;;
59169;SDS011;52474;52.236;5.114;2024-01-30T01:56:34;22.85;;;14.95;;
59169;SDS011;52474;52.236;5.114;2024-01-30T01:59:03;25.58;;;13.95;;
59169;SDS011;52474;52.236;5.114;2024-01-30T02:01:36;22.30;;;13.75;;
59169;SDS011;52474;52.236;5.114;2024-01-30T02:04:02;26.48;;;14.95;;
59169;SDS011;52474;52.236;5.114;2024-01-30T02:06:28;25.10;;;13.77;;
59169;SDS011;52474;52.236;5.114;2024-01-30T02:08:54;22.73;;;14.07;;
59169;SDS011;52474;52.236;5.114;2024-01-30T02:11:21;22.45;;;14.35;;
59169;SDS011;52474;52.236;5.114;2024-01-30T02:13:48;25.13;;;13.50;;
59169;SDS011;52474;52.236;5.114;2024-01-30T02:16:14;24.25;;;14.57;;
59169;SDS011;52474;52.236;5.114;2024-01-30T02:18:40;24.77;;;14.25;;
59169;SDS011;52474;52.236;5.114;2024-01-30T02:21:17;22.23;;;14.38;;
59169;SDS011;52474;52.236;5.114;2024-01-30T02:23:44;21.85;;;14.10;;
59169;SDS011;52474;52.236;5.114;2024-01-30T02:26:11;23.35;;;13.60;;
59169;SDS011;52474;52.236;5.114;2024-01-30T02:28:38;25.67;;;14.88;;
59169;SDS011;52474;52.236;5.114;2024-01-30T02:31:04;24.00;;;15.15;;
59169;SDS011;52474;52.236;5.114;2024-01-30T02:33:30;25.08;;;14.85;;
59169;SDS011;52474;52.236;5.114;2024-01-30T02:35:56;23.63;;;15.05;;
59169;SDS011;52474;52.236;5.114;2024-01-30T02:38:21;23.77;;;14.80;;
59169;SDS011;52474;52.236;5.114;2024-01-30T02:40:48;24.10;;;13.15;;
59169;SDS011;52474;52.236;5.114;2024-01-30T02:43:15;23.10;;;14.18;;
59169;SDS011;52474;52.236;5.114;2024-01-30T02:45:41;21.10;;;13.75;;
59169;SDS011;52474;52.236;5.114;2024-01-30T02:48:07;21.45;;;13.73;;
59169;SDS011;52474;52.236;5.114;2024-01-30T02:50:33;22.83;;;14.60;;
59169;SDS011;52474;52.236;5.114;2024-01-30T02:52:58;22.33;;;13.85;;
59169;SDS011;52474;52.236;5.114;2024-01-30T02:55:24;21.65;;;13.60;;
59169;SDS011;52474;52.236;5.114;2024-01-30T02:57:50;20.77;;;13.68;;
59169;SDS011;52474;52.236;5.114;2024-01-30T03:00:15;23.60;;;14.10;;
59169;SDS011;52474;52.236;5.114;2024-01-30T03:02:41;21.88;;;13.85;;
59169;SDS011;52474;52.236;5.114;2024-01-30T03:05:07;22.77;;;13.82;;
59169;SDS011;52474;52.236;5.114;2024-01-30T03:07:33;21.25;;;12.95;;
59169;SDS011;52474;52.236;5.114;2024-01-30T03:09:59;25.75;;;14.90;;
59169;SDS011;52474;52.236;5.114;2024-01-30T03:12:25;24.13;;;14.02;;
59169;SDS011;52474;52.236;5.114;2024-01-30T03:14:51;24.67;;;14.40;;
59169;SDS011;52474;52.236;5.114;2024-01-30T03:17:17;20.90;;;13.30;;
59169;SDS011;52474;52.236;5.114;2024-01-30T03:19:43;21.13;;;14.50;;
59169;SDS011;52474;52.236;5.114;2024-01-30T03:22:09;20.73;;;13.65;;
59169;SDS011;52474;52.236;5.114;2024-01-30T03:24:34;21.60;;;13.80;;
59169;SDS011;52474;52.236;5.114;2024-01-30T03:27:00;22.65;;;14.45;;
59169;SDS011;52474;52.236;5.114;2024-01-30T03:29:25;22.50;;;13.93;;
59169;SDS011;52474;52.236;5.114;2024-01-30T03:31:51;23.77;;;14.95;;
59169;SDS011;52474;52.236;5.114;2024-01-30T03:34:17;21.52;;;14.18;;
59169;SDS011;52474;52.236;5.114;2024-01-30T03:36:42;21.73;;;14.63;;
59169;SDS011;52474;52.236;5.114;2024-01-30T03:39:08;23.20;;;15.10;;
59169;SDS011;52474;52.236;5.114;2024-01-30T03:41:34;23.73;;;14.43;;
59169;SDS011;52474;52.236;5.114;2024-01-30T03:43:59;18.20;;;13.20;;
59169;SDS011;52474;52.236;5.114;2024-01-30T03:46:25;19.80;;;12.77;;
59169;SDS011;52474;52.236;5.114;2024-01-30T03:48:51;20.95;;;14.25;;
59169;SDS011;52474;52.236;5.114;2024-01-30T03:51:16;20.80;;;14.38;;
59169;SDS011;52474;52.236;5.114;2024-01-30T03:53:42;24.10;;;14.05;;
59169;SDS011;52474;52.236;5.114;2024-01-30T03:56:08;22.58;;;13.93;;
59169;SDS011;52474;52.236;5.114;2024-01-30T03:58:35;22.65;;;14.48;;
59169;SDS011;52474;52.236;5.114;2024-01-30T04:01:01;23.90;;;14.90;;
59169;SDS011;52474;52.236;5.114;2024-01-30T04:03:27;20.98;;;12.45;;
59169;SDS011;52474;52.236;5.114;2024-01-30T04:05:52;20.50;;;13.98;;
59169;SDS011;52474;52.236;5.114;2024-01-30T04:08:18;21.63;;;14.43;;
59169;SDS011;52474;52.236;5.114;2024-01-30T04:10:44;22.42;;;13.15;;
59169;SDS011;52474;52.236;5.114;2024-01-30T04:13:10;22.63;;;14.05;;
59169;SDS011;52474;52.236;5.114;2024-01-30T04:15:36;20.40;;;13.65;;
59169;SDS011;52474;52.236;5.114;2024-01-30T04:18:01;25.00;;;13.90;;
59169;SDS011;52474;52.236;5.114;2024-01-30T04:20:27;22.08;;;14.23;;
59169;SDS011;52474;52.236;5.114;2024-01-30T04:22:53;23.95;;;13.73;;
59169;SDS011;52474;52.236;5.114;2024-01-30T04:25:19;20.83;;;14.07;;
59169;SDS011;52474;52.236;5.114;2024-01-30T04:27:44;23.33;;;15.07;;
59169;SDS011;52474;52.236;5.114;2024-01-30T04:30:10;21.77;;;14.15;;
59169;SDS011;52474;52.236;5.114;2024-01-30T04:32:36;23.90;;;15.40;;
59169;SDS011;52474;52.236;5.114;2024-01-30T04:35:02;24.77;;;14.45;;
59169;SDS011;52474;52.236;5.114;2024-01-30T04:37:29;23.17;;;13.80;;
59169;SDS011;52474;52.236;5.114;2024-01-30T04:39:54;21.58;;;13.93;;
59169;SDS011;52474;52.236;5.114;2024-01-30T04:42:20;22.15;;;13.60;;
59169;SDS011;52474;52.236;5.114;2024-01-30T04:44:46;19.20;;;13.70;;
59169;SDS011;52474;52.236;5.114;2024-01-30T04:47:11;22.10;;;13.85;;
59169;SDS011;52474;52.236;5.114;2024-01-30T04:49:40;24.08;;;14.30;;
59169;SDS011;52474;52.236;5.114;2024-01-30T04:52:06;21.75;;;14.73;;
59169;SDS011;52474;52.236;5.114;2024-01-30T04:54:33;23.20;;;14.80;;
59169;SDS011;52474;52.236;5.114;2024-01-30T04:56:59;26.98;;;15.27;;
59169;SDS011;52474;52.236;5.114;2024-01-30T04:59:25;22.80;;;14.32;;
59169;SDS011;52474;52.236;5.114;2024-01-30T05:01:51;27.67;;;14.35;;
59169;SDS011;52474;52.236;5.114;2024-01-30T05:04:17;26.08;;;13.45;;
59169;SDS011;52474;52.236;5.114;2024-01-30T05:06:42;22.20;;;14.07;;
59169;SDS011;52474;52.236;5.114;2024-01-30T05:09:08;23.48;;;14.75;;
59169;SDS011;52474;52.236;5.114;2024-01-30T05:11:38;23.40;;;14.10;;
59169;SDS011;52474;52.236;5.114;2024-01-30T05:14:04;23.35;;;13.75;;
59169;SDS011;52474;52.236;5.114;2024-01-30T05:16:31;20.95;;;13.32;;
59169;SDS011;52474;52.236;5.114;2024-01-30T05:18:57;22.35;;;13.13;;
59169;SDS011;52474;52.236;5.114;2024-01-30T05:21:23;21.02;;;14.13;;
59169;SDS011;52474;52.236;5.114;2024-01-30T05:23:48;23.25;;;15.05;;
59169;SDS011;52474;52.236;5.114;2024-01-30T05:26:14;19.63;;;13.50;;
59169;SDS011;52474;52.236;5.114;2024-01-30T05:28:40;25.08;;;14.18;;
59169;SDS011;52474;52.236;5.114;2024-01-30T05:31:06;21.88;;;14.60;;
59169;SDS011;52474;52.236;5.114;2024-01-30T05:33:31;21.65;;;13.15;;
59169;SDS011;52474;52.236;5.114;2024-01-30T05:35:57;23.73;;;14.13;;
59169;SDS011;52474;52.236;5.114;2024-01-30T05:38:22;22.02;;;13.00;;
59169;SDS011;52474;52.236;5.114;2024-01-30T05:40:48;21.83;;;13.13;;
59169;SDS011;52474;52.236;5.114;2024-01-30T05:43:14;21.02;;;14.18;;
59169;SDS011;52474;52.236;5.114;2024-01-30T05:45:40;21.05;;;13.45;;
59169;SDS011;52474;52.236;5.114;2024-01-30T05:48:05;21.08;;;14.02;;
59169;SDS011;52474;52.236;5.114;2024-01-30T05:50:31;24.25;;;14.00;;
59169;SDS011;52474;52.236;5.114;2024-01-30T05:52:56;22.27;;;13.98;;
59169;SDS011;52474;52.236;5.114;2024-01-30T05:55:22;23.40;;;14.77;;
59169;SDS011;52474;52.236;5.114;2024-01-30T05:57:48;23.30;;;13.50;;
59169;SDS011;52474;52.236;5.114;2024-01-30T06:00:13;22.83;;;13.23;;
59169;SDS011;52474;52.236;5.114;2024-01-30T06:02:40;21.27;;;13.85;;
59169;SDS011;52474;52.236;5.114;2024-01-30T06:05:05;22.98;;;12.75;;
59169;SDS011;52474;52.236;5.114;2024-01-30T06:07:31;23.85;;;13.80;;
59169;SDS011;52474;52.236;5.114;2024-01-30T06:09:57;18.13;;;12.15;;
59169;SDS011;52474;52.236;5.114;2024-01-30T06:12:23;23.00;;;13.13;;
59169;SDS011;52474;52.236;5.114;2024-01-30T06:14:48;22.27;;;13.73;;
59169;SDS011;52474;52.236;5.114;2024-01-30T06:17:14;21.73;;;12.48;;
59169;SDS011;52474;52.236;5.114;2024-01-30T06:19:39;22.17;;;11.25;;
59169;SDS011;52474;52.236;5.114;2024-01-30T06:22:05;20.98;;;12.65;;
59169;SDS011;52474;52.236;5.114;2024-01-30T06:24:31;19.25;;;12.55;;
59169;SDS011;52474;52.236;5.114;2024-01-30T06:26:56;20.15;;;12.52;;
59169;SDS011;52474;52.236;5.114;2024-01-30T06:29:22;20.88;;;12.55;;
59169;SDS011;52474;52.236;5.114;2024-01-30T06:31:50;20.48;;;11.75;;
59169;SDS011;52474;52.236;5.114;2024-01-30T06:34:15;18.95;;;12.48;;
59169;SDS011;52474;52.236;5.114;2024-01-30T06:36:41;24.85;;;14.38;;
59169;SDS011;52474;52.236;5.114;2024-01-30T06:39:07;23.30;;;13.38;;
59169;SDS011;52474;52.236;5.114;2024-01-30T06:41:33;21.23;;;12.95;;
59169;SDS011;52474;52.236;5.114;2024-01-30T06:43:59;25.80;;;13.07;;
59169;SDS011;52474;52.236;5.114;2024-01-30T06:46:24;17.20;;;11.45;;
59169;SDS011;52474;52.236;5.114;2024-01-30T06:48:50;19.35;;;12.75;;
59169;SDS011;52474;52.236;5.114;2024-01-30T06:51:16;25.40;;;12.57;;
59169;SDS011;52474;52.236;5.114;2024-01-30T06:53:42;20.73;;;11.52;;
59169;SDS011;52474;52.236;5.114;2024-01-30T06:56:07;23.17;;;12.35;;
59169;SDS011;52474;52.236;5.114;2024-01-30T06:58:33;17.58;;;11.35;;
59169;SDS011;52474;52.236;5.114;2024-01-30T07:00:59;22.60;;;12.77;;
59169;SDS011;52474;52.236;5.114;2024-01-30T07:03:25;18.30;;;12.40;;
59169;SDS011;52474;52.236;5.114;2024-01-30T07:05:50;19.80;;;11.93;;
59169;SDS011;52474;52.236;5.114;2024-01-30T07:08:16;19.15;;;12.25;;
59169;SDS011;52474;52.236;5.114;2024-01-30T07:10:43;17.42;;;11.13;;
59169;SDS011;52474;52.236;5.114;2024-01-30T07:13:12;21.88;;;11.77;;
59169;SDS011;52474;52.236;5.114;2024-01-30T07:15:38;20.88;;;13.02;;
59169;SDS011;52474;52.236;5.114;2024-01-30T07:18:04;23.48;;;12.48;;
59169;SDS011;52474;52.236;5.114;2024-01-30T07:20:31;18.70;;;11.40;;
59169;SDS011;52474;52.236;5.114;2024-01-30T07:23:00;19.15;;;11.25;;
59169;SDS011;52474;52.236;5.114;2024-01-30T07:25:26;21.77;;;11.70;;
59169;SDS011;52474;52.236;5.114;2024-01-30T07:27:55;20.13;;;11.88;;
59169;SDS011;52474;52.236;5.114;2024-01-30T07:30:21;17.60;;;12.27;;
59169;SDS011;52474;52.236;5.114;2024-01-30T07:32:48;19.08;;;11.13;;
59169;SDS011;52474;52.236;5.114;2024-01-30T07:35:14;19.27;;;11.20;;
59169;SDS011;52474;52.236;5.114;2024-01-30T07:37:40;19.40;;;11.27;;
59169;SDS011;52474;52.236;5.114;2024-01-30T07:40:06;23.05;;;12.32;;
59169;SDS011;52474;52.236;5.114;2024-01-30T07:42:32;20.45;;;11.07;;
59169;SDS011;52474;52.236;5.114;2024-01-30T07:44:59;20.55;;;11.07;;
59169;SDS011;52474;52.236;5.114;2024-01-30T07:47:25;18.08;;;11.10;;
59169;SDS011;52474;52.236;5.114;2024-01-30T07:49:51;18.92;;;11.27;;
59169;SDS011;52474;52.236;5.114;2024-01-30T07:52:18;20.90;;;10.93;;
59169;SDS011;52474;52.236;5.114;2024-01-30T07:54:50;20.73;;;11.05;;
59169;SDS011;52474;52.236;5.114;2024-01-30T07:57:19;18.20;;;11.65;;
59169;SDS011;52474;52.236;5.114;2024-01-30T07:59:45;17.05;;;11.18;;
59169;SDS011;52474;52.236;5.114;2024-01-30T08:02:13;17.60;;;10.88;;
59169;SDS011;52474;52.236;5.114;2024-01-30T08:04:39;19.73;;;11.25;;
59169;SDS011;52474;52.236;5.114;2024-01-30T08:07:05;20.48;;;11.13;;
59169;SDS011;52474;52.236;5.114;2024-01-30T08:09:31;19.27;;;10.20;;
59169;SDS011;52474;52.236;5.114;2024-01-30T08:11:56;20.30;;;11.18;;
59169;SDS011;52474;52.236;5.114;2024-01-30T08:14:22;18.42;;;10.73;;
59169;SDS011;52474;52.236;5.114;2024-01-30T08:16:48;19.85;;;11.18;;
59169;SDS011;52474;52.236;5.114;2024-01-30T08:19:14;19.98;;;10.55;;
59169;SDS011;52474;52.236;5.114;2024-01-30T08:21:40;17.63;;;10.80;;
59169;SDS011;52474;52.236;5.114;2024-01-30T08:24:06;18.55;;;10.82;;
59169;SDS011;52474;52.236;5.114;2024-01-30T08:26:32;19.00;;;10.45;;
59169;SDS011;52474;52.236;5.114;2024-01-30T08:28:58;21.52;;;11.45;;
59169;SDS011;52474;52.236;5.114;2024-01-30T08:31:24;19.42;;;10.50;;
59169;SDS011;52474;52.236;5.114;2024-01-30T08:33:50;19.88;;;10.68;;
59169;SDS011;52474;52.236;5.114;2024-01-30T08:36:16;18.30;;;10.95;;
59169;SDS011;52474;52.236;5.114;2024-01-30T08:38:42;16.63;;;10.18;;
59169;SDS011;52474;52.236;5.114;2024-01-30T08:41:08;20.20;;;10.80;;
59169;SDS011;52474;52.236;5.114;2024-01-30T08:43:34;16.80;;;10.35;;
59169;SDS011;52474;52.236;5.114;2024-01-30T08:46:00;18.10;;;10.63;;
59169;SDS011;52474;52.236;5.114;2024-01-30T08:48:26;17.90;;;11.02;;
59169;SDS011;52474;52.236;5.114;2024-01-30T08:50:52;18.13;;;10.40;;
59169;SDS011;52474;52.236;5.114;2024-01-30T08:53:18;18.27;;;10.57;;
59169;SDS011;52474;52.236;5.114;2024-01-30T08:55:44;19.75;;;10.02;;
59169;SDS011;52474;52.236;5.114;2024-01-30T08:58:10;19.67;;;10.63;;
59169;SDS011;52474;52.236;5.114;2024-01-30T09:00:36;18.80;;;10.68;;
59169;SDS011;52474;52.236;5.114;2024-01-30T09:03:04;20.13;;;10.65;;
59169;SDS011;52474;52.236;5.114;2024-01-30T09:05:30;20.83;;;10.57;;
59169;SDS011;52474;52.236;5.114;2024-01-30T09:07:55;21.88;;;10.88;;
59169;SDS011;52474;52.236;5.114;2024-01-30T09:10:21;19.02;;;10.68;;
59169;SDS011;52474;52.236;5.114;2024-01-30T09:12:47;20.15;;;10.40;;
59169;SDS011;52474;52.236;5.114;2024-01-30T09:15:13;23.08;;;10.93;;
59169;SDS011;52474;52.236;5.114;2024-01-30T09:17:39;20.25;;;10.55;;
59169;SDS011;52474;52.236;5.114;2024-01-30T09:20:05;18.77;;;10.75;;
59169;SDS011;52474;52.236;5.114;2024-01-30T09:22:31;19.48;;;10.30;;
59169;SDS011;52474;52.236;5.114;2024-01-30T09:24:57;16.63;;;10.25;;
59169;SDS011;52474;52.236;5.114;2024-01-30T09:27:23;24.67;;;11.32;;
59169;SDS011;52474;52.236;5.114;2024-01-30T09:29:49;18.90;;;11.10;;
59169;SDS011;52474;52.236;5.114;2024-01-30T09:32:15;19.85;;;11.38;;
59169;SDS011;52474;52.236;5.114;2024-01-30T09:34:41;18.67;;;10.77;;
59169;SDS011;52474;52.236;5.114;2024-01-30T09:37:07;16.42;;;10.43;;
59169;SDS011;52474;52.236;5.114;2024-01-30T09:39:33;19.63;;;10.30;;
59169;SDS011;52474;52.236;5.114;2024-01-30T09:44:34;21.17;;;11.35;;
59169;SDS011;52474;52.236;5.114;2024-01-30T09:47:02;18.42;;;10.82;;
59169;SDS011;52474;52.236;5.114;2024-01-30T09:49:31;25.02;;;11.93;;
59169;SDS011;52474;52.236;5.114;2024-01-30T09:51:58;17.10;;;10.65;;
59169;SDS011;52474;52.236;5.114;2024-01-30T09:54:24;20.33;;;10.98;;
59169;SDS011;52474;52.236;5.114;2024-01-30T09:56:49;18.73;;;10.93;;
59169;SDS011;52474;52.236;5.114;2024-01-30T09:59:15;18.17;;;10.93;;
59169;SDS011;52474;52.236;5.114;2024-01-30T10:01:41;20.52;;;11.52;;
59169;SDS011;52474;52.236;5.114;2024-01-30T10:04:08;20.77;;;11.90;;
59169;SDS011;52474;52.236;5.114;2024-01-30T10:06:34;18.77;;;11.68;;
59169;SDS011;52474;52.236;5.114;2024-01-30T10:09:00;18.08;;;11.23;;
59169;SDS011;52474;52.236;5.114;2024-01-30T10:11:25;15.00;;;10.63;;
59169;SDS011;52474;52.236;5.114;2024-01-30T10:13:54;18.48;;;10.68;;
59169;SDS011;52474;52.236;5.114;2024-01-30T10:16:20;13.75;;;10.20;;
59169;SDS011;52474;52.236;5.114;2024-01-30T10:18:45;19.65;;;8.30;;
59169;SDS011;52474;52.236;5.114;2024-01-30T10:21:11;11.82;;;7.35;;
59169;SDS011;52474;52.236;5.114;2024-01-30T10:23:37;12.73;;;7.20;;
59169;SDS011;52474;52.236;5.114;2024-01-30T10:26:03;11.15;;;6.90;;
59169;SDS011;52474;52.236;5.114;2024-01-30T10:28:29;15.85;;;7.03;;
59169;SDS011;52474;52.236;5.114;2024-01-30T10:30:59;14.73;;;6.50;;
59169;SDS011;52474;52.236;5.114;2024-01-30T10:33:26;8.23;;;6.15;;
59169;SDS011;52474;52.236;5.114;2024-01-30T10:36:03;12.38;;;5.85;;
59169;SDS011;52474;52.236;5.114;2024-01-30T10:38:30;9.05;;;5.28;;
59169;SDS011;52474;52.236;5.114;2024-01-30T10:40:57;15.02;;;5.70;;
59169;SDS011;52474;52.236;5.114;2024-01-30T10:43:24;14.40;;;5.30;;
59169;SDS011;52474;52.236;5.114;2024-01-30T10:45:55;10.02;;;5.13;;
59169;SDS011;52474;52.236;5.114;2024-01-30T10:48:26;9.43;;;5.57;;
59169;SDS011;52474;52.236;5.114;2024-01-30T10:50:57;10.65;;;6.20;;
59169;SDS011;52474;52.236;5.114;2024-01-30T10:53:25;17.55;;;6.72;;
59169;SDS011;52474;52.236;5.114;2024-01-30T10:55:52;13.77;;;6.85;;
59169;SDS011;52474;52.236;5.114;2024-01-30T10:58:20;11.13;;;6.50;;
59169;SDS011;52474;52.236;5.114;2024-01-30T11:00:47;8.98;;;4.90;;
59169;SDS011;52474;52.236;5.114;2024-01-30T11:03:14;11.15;;;4.72;;
59169;SDS011;52474;52.236;5.114;2024-01-30T11:05:48;10.02;;;4.13;;
59169;SDS011;52474;52.236;5.114;2024-01-30T11:08:15;9.15;;;4.03;;
59169;SDS011;52474;52.236;5.114;2024-01-30T11:10:49;8.55;;;3.30;;
59169;SDS011;52474;52.236;5.114;2024-01-30T11:13:15;7.72;;;3.20;;
59169;SDS011;52474;52.236;5.114;2024-01-30T11:15:40;8.30;;;3.50;;
59169;SDS011;52474;52.236;5.114;2024-01-30T11:18:06;6.40;;;3.42;;
59169;SDS011;52474;52.236;5.114;2024-01-30T11:20:32;5.97;;;3.53;;
59169;SDS011;52474;52.236;5.114;2024-01-30T11:22:58;7.90;;;3.90;;
59169;SDS011;52474;52.236;5.114;2024-01-30T11:25:25;9.38;;;4.05;;
59169;SDS011;52474;52.236;5.114;2024-01-30T11:27:51;9.25;;;4.82;;
59169;SDS011;52474;52.236;5.114;2024-01-30T11:35:56;11.88;;;4.10;;
59169;SDS011;52474;52.236;5.114;2024-01-30T11:38:23;7.75;;;4.38;;
59169;SDS011;52474;52.236;5.114;2024-01-30T11:40:51;10.13;;;4.78;;
59169;SDS011;52474;52.236;5.114;2024-01-30T11:43:18;9.57;;;4.07;;
59169;SDS011;52474;52.236;5.114;2024-01-30T11:45:45;8.35;;;3.78;;
59169;SDS011;52474;52.236;5.114;2024-01-30T11:48:15;12.88;;;4.05;;
59169;SDS011;52474;52.236;5.114;2024-01-30T11:50:41;7.70;;;3.95;;
59169;SDS011;52474;52.236;5.114;2024-01-30T11:53:07;8.32;;;3.90;;
59169;SDS011;52474;52.236;5.114;2024-01-30T11:55:33;9.32;;;3.28;;
59169;SDS011;52474;52.236;5.114;2024-01-30T11:58:01;3.95;;;2.25;;
59169;SDS011;52474;52.236;5.114;2024-01-30T12:00:27;5.85;;;1.63;;
59169;SDS011;52474;52.236;5.114;2024-01-30T12:02:53;6.13;;;1.30;;
59169;SDS011;52474;52.236;5.114;2024-01-30T12:05:23;6.45;;;1.70;;
59169;SDS011;52474;52.236;5.114;2024-01-30T12:07:50;6.95;;;1.40;;
59169;SDS011;52474;52.236;5.114;2024-01-30T12:10:16;7.45;;;1.70;;
59169;SDS011;52474;52.236;5.114;2024-01-30T12:12:43;7.32;;;1.88;;
59169;SDS011;52474;52.236;5.114;2024-01-30T12:15:11;6.50;;;2.05;;
59169;SDS011;52474;52.236;5.114;2024-01-30T12:17:37;8.38;;;1.60;;
59169;SDS011;52474;52.236;5.114;2024-01-30T12:20:07;6.47;;;1.42;;
59169;SDS011;52474;52.236;5.114;2024-01-30T12:22:36;5.93;;;1.10;;
59169;SDS011;52474;52.236;5.114;2024-01-30T12:25:13;6.88;;;1.20;;
59169;SDS011;52474;52.236;5.114;2024-01-30T12:27:42;4.63;;;1.35;;
59169;SDS011;52474;52.236;5.114;2024-01-30T12:30:09;5.67;;;1.47;;
59169;SDS011;52474;52.236;5.114;2024-01-30T12:32:40;6.43;;;1.60;;
59169;SDS011;52474;52.236;5.114;2024-01-30T12:35:10;6.57;;;1.60;;
59169;SDS011;52474;52.236;5.114;2024-01-30T12:37:35;5.32;;;1.80;;
59169;SDS011;52474;52.236;5.114;2024-01-30T12:40:01;7.63;;;2.17;;
59169;SDS011;52474;52.236;5.114;2024-01-30T12:42:27;6.43;;;1.52;;
59169;SDS011;52474;52.236;5.114;2024-01-30T12:44:53;6.28;;;1.73;;
59169;SDS011;52474;52.236;5.114;2024-01-30T12:47:21;9.70;;;2.08;;
59169;SDS011;52474;52.236;5.114;2024-01-30T12:49:47;8.60;;;2.22;;
59169;SDS011;52474;52.236;5.114;2024-01-30T12:52:16;9.55;;;2.03;;
59169;SDS011;52474;52.236;5.114;2024-01-30T12:54:41;5.95;;;1.88;;
59169;SDS011;52474;52.236;5.114;2024-01-30T12:57:07;13.50;;;2.35;;
59169;SDS011;52474;52.236;5.114;2024-01-30T12:59:36;18.25;;;2.53;;
59169;SDS011;52474;52.236;5.114;2024-01-30T13:02:02;6.72;;;1.85;;
59169;SDS011;52474;52.236;5.114;2024-01-30T13:04:28;7.07;;;2.38;;
59169;SDS011;52474;52.236;5.114;2024-01-30T13:06:55;9.15;;;2.10;;
59169;SDS011;52474;52.236;5.114;2024-01-30T13:09:22;5.90;;;2.60;;
59169;SDS011;52474;52.236;5.114;2024-01-30T13:11:49;7.15;;;1.90;;
59169;SDS011;52474;52.236;5.114;2024-01-30T13:14:16;7.68;;;2.35;;
59169;SDS011;52474;52.236;5.114;2024-01-30T13:16:42;7.63;;;2.92;;
59169;SDS011;52474;52.236;5.114;2024-01-30T13:19:08;6.90;;;2.33;;
59169;SDS011;52474;52.236;5.114;2024-01-30T13:21:34;5.20;;;2.53;;
59169;SDS011;52474;52.236;5.114;2024-01-30T13:23:59;9.38;;;2.90;;
59169;SDS011;52474;52.236;5.114;2024-01-30T13:26:25;6.75;;;2.67;;
59169;SDS011;52474;52.236;5.114;2024-01-30T13:28:53;7.05;;;2.92;;
59169;SDS011;52474;52.236;5.114;2024-01-30T13:31:19;7.28;;;2.75;;
59169;SDS011;52474;52.236;5.114;2024-01-30T13:33:46;7.88;;;2.95;;
59169;SDS011;52474;52.236;5.114;2024-01-30T13:36:11;8.63;;;3.38;;
59169;SDS011;52474;52.236;5.114;2024-01-30T13:38:53;8.52;;;3.53;;
59169;SDS011;52474;52.236;5.114;2024-01-30T13:44:14;9.10;;;4.10;;
59169;SDS011;52474;52.236;5.114;2024-01-30T13:46:42;8.40;;;3.38;;
59169;SDS011;52474;52.236;5.114;2024-01-30T13:49:08;8.07;;;3.45;;
59169;SDS011;52474;52.236;5.114;2024-01-30T13:51:33;11.77;;;4.28;;
59169;SDS011;52474;52.236;5.114;2024-01-30T13:53:59;8.18;;;3.60;;
59169;SDS011;52474;52.236;5.114;2024-01-30T13:56:25;6.90;;;3.85;;
59169;SDS011;52474;52.236;5.114;2024-01-30T13:58:52;5.38;;;3.78;;
59169;SDS011;52474;52.236;5.114;2024-01-30T14:01:18;9.93;;;3.80;;
59169;SDS011;52474;52.236;5.114;2024-01-30T14:03:43;15.40;;;4.45;;
59169;SDS011;52474;52.236;5.114;2024-01-30T14:06:10;7.53;;;3.95;;
59169;SDS011;52474;52.236;5.114;2024-01-30T14:08:36;8.18;;;4.30;;
59169;SDS011;52474;52.236;5.114;2024-01-30T14:11:02;9.88;;;4.38;;
59169;SDS011;52474;52.236;5.114;2024-01-30T14:13:28;8.23;;;4.63;;
59169;SDS011;52474;52.236;5.114;2024-01-30T14:15:56;10.20;;;5.43;;
59169;SDS011;52474;52.236;5.114;2024-01-30T14:18:22;5.68;;;4.63;;
59169;SDS011;52474;52.236;5.114;2024-01-30T14:20:48;8.00;;;4.65;;
59169;SDS011;52474;52.236;5.114;2024-01-30T14:23:13;6.53;;;4.28;;
59169;SDS011;52474;52.236;5.114;2024-01-30T14:25:39;8.55;;;4.75;;
59169;SDS011;52474;52.236;5.114;2024-01-30T14:28:05;8.82;;;5.43;;
59169;SDS011;52474;52.236;5.114;2024-01-30T14:30:31;7.00;;;4.93;;
59169;SDS011;52474;52.236;5.114;2024-01-30T14:32:57;9.75;;;5.07;;
59169;SDS011;52474;52.236;5.114;2024-01-30T14:35:23;9.65;;;5.00;;